Terminal Aerodrome Forecast
Issued by NWS Raleigh/Durham, NC

Home | Current Version | Previous Version | Text Only | Print | Product List | Glossary On
Versions: 1 2 3 4 5 6 7 8 9 10 11 12 13 14 15 16 17 18 19 20 21 22 23 24 25 26 27 28 29
000
FTUS42 KRAH 231404 AAA
TAFGSO
TAF AMD
KGSO 231404Z 2314/2412 07012KT 3SM SHRA SCT006 BKN015 OVC035
      TEMPO 2314/2316 2SM RA BR BKN006
     FM231600 23004KT P6SM VCSH BKN025
     FM240000 33006KT 4SM BR VCSH OVC007
     FM240600 32009KT P6SM OVC050=

USA.gov is the U.S. government's official web portal to all federal, state and local government web resources and services.